Time;durP1;ratioP1;P1;durP2;ratioP2;P2;SDS_P1;SDS_P2;PMS_P1;PMS_P2;Temp;Humidity;BMP_temperature;BMP_pressure;BME280_temperature;BME280_humidity;BME280_pressure;Samples;Min_cycle;Max_cycle;Signal;HPM_P1;HPM_P2
2023/05/24 00:02:18;;;;;;;5.70;2.90;;;;;;;15.08;100.00;97545.41;1687954;75;2816479;-73
2023/05/24 00:04:49;;;;;;;3.55;3.00;;;;;;;15.05;100.00;97546.44;1707235;75;821708;-71
2023/05/24 00:07:22;;;;;;;5.60;5.10;;;;;;;15.00;100.00;97539.69;1716272;75;670959;-75
2023/05/24 00:09:52;;;;;;;4.70;4.30;;;;;;;14.95;100.00;97550.75;1707530;75;755360;-70
2023/05/24 00:12:22;;;;;;;4.10;3.50;;;;;;;15.04;100.00;97544.94;1616024;75;8932115;-71
2023/05/24 00:14:52;;;;;;;3.80;3.40;;;;;;;15.02;100.00;97552.97;1690329;75;1781540;-72
2023/05/24 00:17:25;;;;;;;3.30;3.00;;;;;;;15.00;100.00;97544.47;1711540;75;682400;-75
2023/05/24 00:19:55;;;;;;;3.15;2.85;;;;;;;15.08;100.00;97546.19;1701805;75;759697;-73
2023/05/24 00:22:25;;;;;;;3.20;2.90;;;;;;;15.08;100.00;97548.16;1708011;75;943296;-74
2023/05/24 00:24:55;;;;;;;2.85;2.65;;;;;;;15.07;100.00;97541.91;1689255;75;1769292;-71
2023/05/24 00:27:26;;;;;;;3.30;2.45;;;;;;;15.02;100.00;97539.19;1710408;75;686196;-72
2023/05/24 00:29:56;;;;;;;2.55;2.35;;;;;;;15.06;100.00;97542.44;1700498;75;828974;-71
2023/05/24 00:32:28;;;;;;;2.85;2.45;;;;;;;15.07;100.00;97549.44;1708981;75;859416;-72
2023/05/24 00:34:59;;;;;;;4.10;3.70;;;;;;;14.87;100.00;97548.53;1700276;75;853990;-71
2023/05/24 00:37:29;;;;;;;5.80;4.85;;;;;;;14.90;100.00;97550.25;1709825;75;689353;-74
2023/05/24 00:39:59;;;;;;;4.50;3.75;;;;;;;15.08;100.00;97553.69;1700677;75;768347;-74
2023/05/24 00:42:29;;;;;;;3.35;3.05;;;;;;;15.11;100.00;97553.44;1707808;75;960543;-70
2023/05/24 00:44:59;;;;;;;3.90;3.50;;;;;;;14.97;100.00;97549.00;1702108;75;747807;-73
2023/05/24 00:47:32;;;;;;;4.25;3.85;;;;;;;14.96;100.00;97560.50;1708359;75;810227;-75
2023/05/24 00:50:03;;;;;;;4.95;4.45;;;;;;;14.98;100.00;97552.50;1701440;75;740540;-75
2023/05/24 00:52:33;;;;;;;4.90;3.50;;;;;;;15.09;100.00;97560.72;1710886;75;685505;-71
2023/05/24 00:55:03;;;;;;;3.50;3.20;;;;;;;15.04;100.00;97558.75;1700752;75;834488;-77
2023/05/24 00:57:34;;;;;;;3.30;3.00;;;;;;;15.13;100.00;97559.19;1709888;75;680699;-69
2023/05/24 01:00:06;;;;;;;2.90;2.60;;;;;;;15.04;100.00;97555.97;1701516;75;755119;-72
2023/05/24 01:02:39;;;;;;;5.70;5.10;;;;;;;14.87;100.00;97547.78;1708302;75;911617;-74
2023/05/24 01:05:12;;;;;;;4.60;4.10;;;;;;;15.01;100.00;97548.72;1699924;75;897199;-70
2023/05/24 01:07:59;;;;;;;4.10;3.40;;;;;;;15.00;100.00;97555.50;1710687;75;681698;-74
2023/05/24 01:10:42;;;;;;;4.15;3.55;;;;;;;14.96;100.00;97549.47;1702214;75;750113;-73
2023/05/24 01:13:29;;;;;;;3.80;3.20;;;;;;;14.97;100.00;97548.25;1688598;75;1931784;-74
2023/05/24 01:16:07;;;;;;;3.40;3.10;;;;;;;14.87;100.00;97547.78;1708304;75;919735;-72
2023/05/24 01:18:46;;;;;;;4.50;4.10;;;;;;;14.86;100.00;97549.03;1687505;75;1804035;-72
2023/05/24 01:21:37;;;;;;;3.65;3.35;;;;;;;14.98;100.00;97553.22;1703292;75;676896;-71
2023/05/24 01:24:22;;;;;;;3.30;3.00;;;;;;;14.95;100.00;97553.50;1711246;75;670474;-75
2023/05/24 01:27:10;;;;;;;3.50;3.20;;;;;;;14.90;100.00;97557.78;1701019;75;760624;-74
2023/05/24 01:29:41;;;;;;;4.00;3.50;;;;;;;14.94;100.00;97560.28;1702911;75;675129;-71
2023/05/24 01:32:12;;;;;;;4.70;4.20;;;;;;;14.87;100.00;97567.81;1710606;75;709711;-72
2023/05/24 01:34:42;;;;;;;4.20;3.80;;;;;;;14.90;100.00;97561.28;1699570;75;983175;-74
2023/05/24 01:37:12;;;;;;;4.40;4.00;;;;;;;14.91;100.00;97564.78;1710359;75;697109;-72
2023/05/24 01:39:43;;;;;;;4.10;3.70;;;;;;;14.93;100.00;97575.31;1700081;75;905645;-75
2023/05/24 01:42:28;;;;;;;4.10;3.70;;;;;;;14.96;100.00;97566.78;1711158;75;681462;-74
2023/05/24 01:45:11;;;;;;;5.45;4.95;;;;;;;14.89;100.00;97568.06;1702213;75;746809;-74
2023/05/24 01:47:57;;;;;;;4.30;3.90;;;;;;;14.87;100.00;97565.06;1699182;75;950555;-74
2023/05/24 01:50:33;;;;;;;4.70;3.90;;;;;;;14.86;100.00;97574.59;1711351;75;670168;-72
2023/05/24 01:53:11;;;;;;;4.05;3.65;;;;;;;14.97;100.00;97575.81;1701702;75;745520;-74
2023/05/24 01:55:41;;;;;;;2.80;2.60;;;;;;;15.00;100.00;97577.53;1702592;75;694108;-70
2023/05/24 01:58:18;;;;;;;2.90;2.65;;;;;;;15.03;100.00;97582.03;1694951;75;1902263;-72
2023/05/24 02:00:49;;;;;;;4.30;3.90;;;;;;;14.99;100.00;97578.81;1702418;75;713118;-73
2023/05/24 02:03:19;;;;;;;3.85;3.50;;;;;;;14.89;100.00;97572.84;1711199;75;672753;-72
2023/05/24 02:05:50;;;;;;;4.00;3.60;;;;;;;14.87;100.00;97576.09;1702469;75;700386;-74
2023/05/24 02:08:20;;;;;;;3.40;3.10;;;;;;;14.89;100.00;97581.09;1710198;75;676569;-71
2023/05/24 02:10:51;;;;;;;4.65;4.20;;;;;;;14.91;100.00;97575.81;1702197;75;675893;-74
2023/05/24 02:13:23;;;;;;;4.00;3.40;;;;;;;14.95;100.00;97581.81;1708854;75;797502;-75
2023/05/24 02:15:54;;;;;;;2.80;2.55;;;;;;;14.98;100.00;97577.31;1702664;75;697666;-71
2023/05/24 02:18:24;;;;;;;3.45;3.05;;;;;;;14.93;100.00;97575.31;1683855;75;2895323;-71
2023/05/24 02:20:54;;;;;;;3.10;2.70;;;;;;;14.99;100.00;97578.81;1699550;67;944224;-75
2023/05/24 02:23:25;;;;;;;3.10;2.80;;;;;;;14.89;100.00;97581.84;1710775;75;678862;-72
2023/05/24 02:25:55;;;;;;;2.80;2.50;;;;;;;14.96;100.00;97585.31;1700705;67;882520;-69
2023/05/24 02:28:30;;;;;;;4.90;3.00;;;;;;;14.89;100.00;97590.13;1710471;75;675699;-75
2023/05/24 02:31:01;;;;;;;3.35;3.05;;;;;;;14.98;100.00;97591.06;1702968;75;674199;-72
2023/05/24 02:33:32;;;;;;;2.90;2.60;;;;;;;14.89;100.00;97594.88;1710525;75;670724;-72
2023/05/24 02:36:02;;;;;;;3.60;3.30;;;;;;;14.94;100.00;97583.09;1702829;75;682779;-72
2023/05/24 02:38:33;;;;;;;3.00;2.70;;;;;;;14.85;100.00;97581.34;1710339;75;669550;-76
2023/05/24 02:41:03;;;;;;;7.20;6.50;;;;;;;14.62;100.00;97585.44;1702494;75;700519;-70
2023/05/24 02:43:36;;;;;;;6.60;5.00;;;;;;;14.85;100.00;97586.13;1695621;75;1967525;-74
2023/05/24 02:46:08;;;;;;;4.50;3.70;;;;;;;14.84;100.00;97579.88;1701956;75;752554;-72
2023/05/24 02:48:38;;;;;;;3.80;3.10;;;;;;;14.82;100.00;97570.59;1698465;75;1692846;-72
2023/05/24 02:51:08;;;;;;;4.50;3.65;;;;;;;14.87;100.00;97570.56;1701794;75;755781;-73
2023/05/24 02:53:38;;;;;;;3.40;3.10;;;;;;;14.93;100.00;97572.56;1709470;75;747334;-74
2023/05/24 02:56:10;;;;;;;3.00;2.70;;;;;;;14.92;100.00;97571.81;1698672;75;821447;-72
2023/05/24 02:58:43;;;;;;;2.70;2.10;;;;;;;14.92;100.00;97574.56;1710156;75;670062;-73
2023/05/24 03:01:14;;;;;;;2.50;2.30;;;;;;;14.94;100.00;97572.06;1698290;75;963698;-70
2023/05/24 03:03:44;;;;;;;3.10;2.80;;;;;;;14.80;100.00;97581.38;1709933;75;690711;-70
2023/05/24 03:06:15;;;;;;;4.05;3.65;;;;;;;14.74;100.00;97588.91;1702066;75;720468;-76
2023/05/24 03:08:46;;;;;;;6.80;6.10;;;;;;;14.57;100.00;97589.69;1710788;75;690149;-70
2023/05/24 03:11:18;;;;;;;6.80;6.10;;;;;;;14.71;100.00;97598.94;1701584;75;743916;-72
2023/05/24 03:13:52;;;;;;;8.60;7.15;;;;;;;14.45;100.00;97594.44;1710677;75;670828;-72
2023/05/24 03:16:22;;;;;;;7.95;6.55;;;;;;;14.53;100.00;97596.69;1700360;75;822735;-73
2023/05/24 03:18:54;;;;;;;4.80;4.40;;;;;;;14.66;100.00;97602.47;1709384;75;887040;-73
2023/05/24 03:21:24;;;;;;;4.50;4.10;;;;;;;14.74;100.00;97597.19;1690853;75;1724398;-71
2023/05/24 03:23:54;;;;;;;4.60;4.20;;;;;;;14.68;100.00;97602.72;1687997;75;2682447;-72
2023/05/24 03:26:25;;;;;;;3.90;3.40;;;;;;;14.77;100.00;97602.44;1698746;75;981692;-72
2023/05/24 03:28:58;;;;;;;4.25;3.85;;;;;;;14.65;100.00;97606.47;1711018;75;708503;-71
2023/05/24 03:31:29;;;;;;;6.80;5.45;;;;;;;14.56;100.00;97606.75;1700337;75;846080;-72
2023/05/24 03:33:59;;;;;;;5.30;4.80;;;;;;;14.60;100.00;97604.47;1710539;75;674631;-73
2023/05/24 03:36:29;;;;;;;4.65;4.25;;;;;;;14.68;100.00;97608.97;1701032;75;749780;-75
2023/05/24 03:39:00;;;;;;;4.10;3.70;;;;;;;14.70;100.00;97611.97;1695881;75;1947385;-71
2023/05/24 03:41:30;;;;;;;3.50;3.20;;;;;;;14.75;100.00;97610.47;1700007;75;809064;-74
2023/05/24 03:44:03;;;;;;;3.30;3.00;;;;;;;14.83;100.00;97613.44;1710948;75;692972;-72
2023/05/24 03:46:33;;;;;;;3.15;2.85;;;;;;;14.81;100.00;97613.94;1700960;75;756300;-72
2023/05/24 03:49:03;;;;;;;4.45;2.60;;;;;;;14.84;100.00;97621.22;1708798;75;861623;-71
2023/05/24 03:51:33;;;;;;;3.00;2.70;;;;;;;14.77;100.00;97616.22;1701278;75;757855;-71
2023/05/24 03:54:03;;;;;;;4.90;4.40;;;;;;;14.74;100.00;97619.22;1711392;75;671242;-70
2023/05/24 03:56:33;;;;;;;5.35;4.85;;;;;;;14.61;100.00;97622.50;1701212;75;753063;-71
2023/05/24 03:59:06;;;;;;;4.55;4.15;;;;;;;14.68;100.00;97616.50;1696238;75;1905210;-77
2023/05/24 04:01:37;;;;;;;4.20;3.80;;;;;;;14.79;100.00;97627.50;1701392;75;739098;-72
2023/05/24 04:04:07;;;;;;;3.50;3.20;;;;;;;14.81;100.00;97622.19;1710589;75;680462;-71
2023/05/24 04:06:40;;;;;;;6.80;5.05;;;;;;;14.69;100.00;97617.97;1689254;75;1775584;-72
2023/05/24 04:09:11;;;;;;;4.10;3.70;;;;;;;14.84;100.00;97621.22;1684750;75;2880333;-71
2023/05/24 04:11:41;;;;;;;4.65;3.90;;;;;;;14.75;100.00;97627.00;1701300;75;746345;-70
2023/05/24 04:14:14;;;;;;;10.10;8.00;;;;;;;14.40;100.00;97628.25;1710680;75;675337;-70
2023/05/24 04:16:44;;;;;;;9.30;8.40;;;;;;;14.45;100.00;97630.25;1698722;75;956519;-74
2023/05/24 04:19:14;;;;;;;8.35;7.55;;;;;;;14.68;100.00;97635.78;1711019;75;674936;-71
2023/05/24 04:21:45;;;;;;;7.35;6.65;;;;;;;14.82;100.00;97631.25;1702501;75;748211;-71
2023/05/24 04:24:15;;;;;;;6.20;5.60;;;;;;;14.94;100.00;97643.00;1711539;75;679151;-70
2023/05/24 04:26:46;;;;;;;5.30;4.80;;;;;;;14.88;100.00;97643.72;1664609;75;3863748;-73
2023/05/24 04:29:19;;;;;;;5.50;4.90;;;;;;;14.88;100.00;97645.75;1699184;75;1761074;-73
2023/05/24 04:31:49;;;;;;;4.70;4.20;;;;;;;14.89;100.00;97639.00;1702459;75;759544;-73
2023/05/24 04:34:21;;;;;;;5.35;4.60;;;;;;;14.87;100.00;97642.25;1712741;75;682139;-73
2023/05/24 04:36:51;;;;;;;5.85;4.95;;;;;;;14.87;100.00;97633.97;1690548;75;1753534;-70
2023/05/24 04:39:22;;;;;;;5.70;4.80;;;;;;;14.94;100.00;97651.25;1710143;75;863944;-72
2023/05/24 04:41:53;;;;;;;12.75;10.40;;;;;;;14.95;100.00;97655.50;1702479;75;768119;-71
2023/05/24 04:44:26;;;;;;;9.70;8.70;;;;;;;15.00;100.00;97649.97;1697699;75;1765417;-70
2023/05/24 04:46:57;;;;;;;7.55;6.80;;;;;;;15.02;100.00;97655.72;1701956;75;762241;-74
2023/05/24 04:49:27;;;;;;;5.70;5.10;;;;;;;15.04;100.00;97647.69;1711180;75;668980;-74
2023/05/24 04:51:58;;;;;;;4.40;4.00;;;;;;;15.06;100.00;97650.72;1698805;75;925945;-72
2023/05/24 04:54:28;;;;;;;3.70;3.30;;;;;;;15.08;100.00;97650.19;1709758;75;794358;-70
2023/05/24 04:56:58;;;;;;;3.45;3.15;;;;;;;15.02;100.00;97650.22;1688473;75;1791952;-70
2023/05/24 04:59:31;;;;;;;8.70;6.95;;;;;;;14.80;100.00;97651.03;1711047;75;676943;-71
2023/05/24 05:02:01;;;;;;;6.30;5.70;;;;;;;14.88;100.00;97663.03;1701609;75;761302;-71
2023/05/24 05:04:32;;;;;;;5.60;4.50;;;;;;;14.95;100.00;97659.00;1711096;75;677250;-72
2023/05/24 05:07:02;;;;;;;4.90;4.20;;;;;;;14.96;100.00;97662.50;1701864;75;737589;-71
2023/05/24 05:09:32;;;;;;;4.15;3.75;;;;;;;15.01;100.00;97667.25;1708061;75;943980;-73
2023/05/24 05:12:02;;;;;;;3.35;3.05;;;;;;;15.07;100.00;97663.22;1700920;75;798807;-70
2023/05/24 05:14:35;;;;;;;3.60;2.95;;;;;;;15.08;100.00;97661.22;1708433;75;838036;-74
2023/05/24 05:17:06;;;;;;;3.30;2.70;;;;;;;15.14;100.00;97667.47;1701793;75;747920;-75
2023/05/24 05:19:36;;;;;;;2.80;2.50;;;;;;;15.12;100.00;97672.75;1710688;75;670382;-71
2023/05/24 05:22:07;;;;;;;3.95;3.25;;;;;;;15.11;100.00;97672.00;1702362;75;750573;-71
2023/05/24 05:24:37;;;;;;;4.20;3.50;;;;;;;15.14;100.00;97664.72;1709461;75;793835;-72
2023/05/24 05:27:08;;;;;;;3.90;3.50;;;;;;;15.15;100.00;97668.22;1700995;75;739124;-74
2023/05/24 05:29:41;;;;;;;4.05;3.65;;;;;;;15.11;100.00;97660.97;1696638;75;1821711;-72
2023/05/24 05:32:11;;;;;;;4.45;4.05;;;;;;;15.17;100.00;97669.22;1701257;75;740551;-75
2023/05/24 05:34:41;;;;;;;4.90;4.40;;;;;;;15.21;100.00;97669.69;1710071;75;674962;-73
2023/05/24 05:37:12;;;;;;;3.80;3.40;;;;;;;15.31;100.00;97672.94;1698750;75;912835;-71
2023/05/24 05:39:42;;;;;;;4.15;3.75;;;;;;;15.32;100.00;97672.44;1710213;75;674171;-73
2023/05/24 05:42:12;;;;;;;4.15;3.35;;;;;;;15.37;100.00;97670.13;1701999;75;753366;-72
2023/05/24 05:44:45;;;;;;;4.30;3.75;;;;;;;15.33;100.00;97681.44;1674366;75;3710159;-74
2023/05/24 05:47:15;;;;;;;4.10;3.70;;;;;;;15.37;100.00;97670.13;1701695;75;748099;-72
2023/05/24 05:49:46;;;;;;;4.85;3.90;;;;;;;15.25;100.00;97672.97;1711332;75;671425;-73
2023/05/24 05:52:16;;;;;;;5.15;4.70;;;;;;;15.28;100.00;97674.69;1689066;75;1780177;-72
2023/05/24 05:54:48;;;;;;;5.50;4.90;;;;;;;15.23;100.00;97678.22;1711002;75;674095;-74
2023/05/24 05:57:22;;;;;;;6.40;5.40;;;;;;;15.29;100.00;97678.94;1687038;75;1970469;-75
2023/05/24 05:59:58;;;;;;;4.40;3.90;;;;;;;15.37;100.00;97681.16;1711062;75;676587;-75
2023/05/24 06:02:28;;;;;;;4.05;3.65;;;;;;;15.44;100.00;97684.16;1702014;75;739210;-74
2023/05/24 06:04:58;;;;;;;3.70;3.40;;;;;;;15.45;100.00;97691.19;1711128;75;678226;-73
2023/05/24 06:07:29;;;;;;;4.95;3.40;;;;;;;15.48;100.00;97692.91;1616482;75;7811392;-72
2023/05/24 06:09:59;;;;;;;4.80;4.30;;;;;;;15.51;100.00;97694.69;1710160;75;674837;-73
2023/05/24 06:12:29;;;;;;;5.90;4.85;;;;;;;15.60;100.00;97693.63;1701347;75;732471;-72
2023/05/24 06:15:05;;;;;;;4.05;3.65;;;;;;;15.51;100.00;97697.44;1711611;75;675499;-77
2023/05/24 06:17:36;;;;;;;4.00;3.60;;;;;;;15.52;100.00;97696.16;1701937;75;751056;-72
2023/05/24 06:20:10;;;;;;;4.00;3.60;;;;;;;15.53;100.00;97683.84;1710021;75;751354;-73
2023/05/24 06:22:41;;;;;;;3.00;2.70;;;;;;;15.63;100.00;97694.59;1702291;75;747905;-75
2023/05/24 06:25:14;;;;;;;3.50;3.00;;;;;;;15.52;100.00;97696.16;1711149;75;715736;-72
2023/05/24 06:27:47;;;;;;;4.25;3.85;;;;;;;15.47;100.00;97699.69;1701035;75;746765;-74
2023/05/24 06:30:21;;;;;;;4.60;4.10;;;;;;;15.50;100.00;97706.22;1710389;75;676267;-73
2023/05/24 06:32:51;;;;;;;3.60;3.30;;;;;;;15.58;100.00;97709.94;1701319;75;753654;-73
2023/05/24 06:35:21;;;;;;;3.30;3.00;;;;;;;15.62;100.00;97718.69;1686350;75;2752624;-73
2023/05/24 06:37:51;;;;;;;3.15;2.70;;;;;;;15.54;100.00;97707.44;1701278;75;736338;-73
2023/05/24 06:40:22;;;;;;;4.40;3.95;;;;;;;15.37;100.00;97706.78;1711339;75;672146;-73
2023/05/24 06:42:52;;;;;;;5.55;3.85;;;;;;;15.36;100.00;97718.31;1700943;75;842549;-75
2023/05/24 06:45:25;;;;;;;5.35;4.85;;;;;;;15.17;100.00;97713.34;1711360;75;684613;-73
2023/05/24 06:47:55;;;;;;;6.35;5.75;;;;;;;15.05;100.00;97717.38;1689575;75;1750958;-73
2023/05/24 06:50:26;;;;;;;6.70;6.10;;;;;;;15.01;100.00;97714.13;1708783;75;864600;-73
2023/05/24 06:52:56;;;;;;;7.00;5.90;;;;;;;15.04;100.00;97719.38;1675536;75;2981190;-72
2023/05/24 06:55:26;;;;;;;9.85;6.60;;;;;;;15.02;100.00;97721.16;1708531;75;870666;-73
2023/05/24 06:57:56;;;;;;;8.25;6.75;;;;;;;15.07;100.00;97720.38;1701343;75;752475;-73
2023/05/24 07:00:32;;;;;;;6.95;6.25;;;;;;;15.02;100.00;97727.41;1710605;75;730751;-74
2023/05/24 07:03:03;;;;;;;6.90;5.90;;;;;;;15.00;100.00;97727.16;1689605;75;1732824;-73
2023/05/24 07:05:33;;;;;;;7.50;6.70;;;;;;;14.96;100.00;97731.41;1708746;75;844472;-76
2023/05/24 07:08:03;;;;;;;6.50;5.90;;;;;;;14.99;100.00;97738.69;1699451;75;935049;-72
2023/05/24 07:10:33;;;;;;;6.80;5.50;;;;;;;14.99;100.00;97731.19;1710692;75;697516;-73
2023/05/24 07:13:04;;;;;;;7.10;6.40;;;;;;;14.94;100.00;97740.22;1699553;75;957054;-74
2023/05/24 07:15:39;;;;;;;7.50;6.70;;;;;;;15.02;100.00;97740.44;1711222;75;680942;-73
2023/05/24 07:18:11;;;;;;;6.20;5.00;;;;;;;15.08;100.00;97741.94;1699707;75;933312;-71
2023/05/24 07:20:41;;;;;;;6.60;5.40;;;;;;;15.02;100.00;97737.69;1707212;75;1017187;-73
2023/05/24 07:23:11;;;;;;;5.80;5.20;;;;;;;15.04;100.00;97738.69;1677171;75;2836862;-75
2023/05/24 07:25:41;;;;;;;7.45;6.65;;;;;;;14.90;100.00;97737.69;1711074;75;725462;-72
2023/05/24 07:28:13;;;;;;;6.00;5.40;;;;;;;14.97;100.00;97746.72;1702066;75;741930;-73
2023/05/24 07:30:46;;;;;;;8.00;4.70;;;;;;;15.04;100.00;97746.22;1711271;75;669953;-75
2023/05/24 07:33:16;;;;;;;5.10;4.10;;;;;;;15.15;100.00;97742.66;1689755;75;1703342;-72
2023/05/24 07:35:50;;;;;;;7.30;6.05;;;;;;;15.04;100.00;97741.44;1710528;75;683617;-74
2023/05/24 07:38:20;;;;;;;6.50;5.50;;;;;;;15.13;100.00;97734.91;1622089;75;7390689;-77
2023/05/24 07:40:51;;;;;;;5.85;5.25;;;;;;;15.23;100.00;97738.16;1697693;75;1891933;-73
2023/05/24 07:43:21;;;;;;;4.60;4.10;;;;;;;15.30;100.00;97741.13;1679041;75;2726604;-75
2023/05/24 07:45:56;;;;;;;5.20;4.70;;;;;;;15.29;100.00;97747.91;1712793;75;686547;-76
2023/05/24 07:48:27;;;;;;;4.10;3.70;;;;;;;15.41;100.00;97748.63;1701063;75;887487;-76
2023/05/24 07:50:57;;;;;;;5.15;4.65;;;;;;;15.42;100.00;97755.66;1709871;75;917622;-74
2023/05/24 07:53:27;;;;;;;4.10;3.70;;;;;;;15.51;100.00;97757.38;1700606;75;949188;-75
2023/05/24 07:55:57;;;;;;;4.05;3.65;;;;;;;15.57;100.00;97757.34;1712131;75;683560;-74
2023/05/24 07:58:28;;;;;;;4.60;4.20;;;;;;;15.49;100.00;97759.88;1699610;75;918888;-74
2023/05/24 08:01:00;;;;;;;6.20;4.30;;;;;;;15.45;100.00;97760.16;1710204;75;729916;-73
2023/05/24 08:03:31;;;;;;;7.00;6.30;;;;;;;15.23;100.00;97754.69;1688538;75;1819162;-73
2023/05/24 08:06:01;;;;;;;7.35;6.55;;;;;;;15.20;100.00;97756.47;1711492;75;678688;-78
2023/05/24 08:08:31;;;;;;;7.30;6.20;;;;;;;15.21;100.00;97766.22;1687605;75;1951578;-74
2023/05/24 08:11:01;;;;;;;6.15;5.55;;;;;;;15.34;100.00;97762.94;1710948;75;758384;-74
2023/05/24 08:13:32;;;;;;;6.25;5.55;;;;;;;15.29;100.00;97766.44;1676962;75;2847749;-74
2023/05/24 08:16:07;;;;;;;6.00;5.40;;;;;;;15.33;100.00;97759.44;1712103;75;675021;-75
2023/05/24 08:18:37;;;;;;;4.60;4.20;;;;;;;15.49;100.00;97773.66;1699381;75;978592;-73
2023/05/24 08:21:08;;;;;;;4.35;3.95;;;;;;;15.46;100.00;97771.94;1711726;75;673090;-73
2023/05/24 08:23:38;;;;;;;4.20;3.45;;;;;;;15.62;100.00;97764.88;1702843;75;747961;-73
2023/05/24 08:26:08;;;;;;;4.00;3.50;;;;;;;15.67;100.00;97772.38;1711573;75;740659;-73
2023/05/24 08:28:40;;;;;;;3.65;3.25;;;;;;;15.69;100.00;97773.34;1702651;75;757032;-74
2023/05/24 08:31:12;;;;;;;5.20;2.70;;;;;;;15.86;100.00;97770.56;1710478;75;761219;-72
2023/05/24 08:33:43;;;;;;;2.95;2.60;;;;;;;15.91;100.00;97778.06;1702247;75;732218;-73
2023/05/24 08:36:13;;;;;;;3.40;3.10;;;;;;;15.87;100.00;97777.56;1708307;75;919733;-71
2023/05/24 08:38:43;;;;;;;3.05;2.75;;;;;;;15.71;100.00;97781.19;1700407;75;809959;-72
2023/05/24 08:41:14;;;;;;;3.90;3.20;;;;;;;15.76;100.00;97783.16;1710802;75;679361;-78
2023/05/24 08:43:45;;;;;;;3.60;3.30;;;;;;;15.86;100.00;97783.63;1700395;75;908992;-73
2023/05/24 08:46:21;;;;;;;3.35;2.90;;;;;;;15.94;100.00;97779.06;1711897;75;674908;-72
2023/05/24 08:48:51;;;;;;;4.05;3.65;;;;;;;15.83;100.00;97784.63;1676069;75;2862286;-74
2023/05/24 08:51:22;;;;;;;2.80;2.50;;;;;;;15.98;100.00;97785.81;1711783;75;675249;-74
2023/05/24 08:53:55;;;;;;;3.60;2.85;;;;;;;16.00;100.00;97792.84;1703749;75;754033;-72
2023/05/24 08:56:27;;;;;;;2.60;2.40;;;;;;;15.93;100.00;97796.88;1712710;75;674087;-72
2023/05/24 08:58:58;;;;;;;8.00;7.20;;;;;;;15.23;100.00;97796.81;1679226;75;2975873;-76
2023/05/24 09:01:32;;;;;;;11.00;7.60;;;;;;;14.94;100.00;97795.34;1591058;75;10997298;-77
2023/05/24 09:04:04;;;;;;;11.40;7.70;;;;;;;14.95;100.00;97805.09;1666069;75;3877243;-73
2023/05/24 09:06:36;;;;;;;8.40;7.60;;;;;;;15.01;100.00;97802.34;1712365;75;675334;-74
2023/05/24 09:09:07;;;;;;;8.50;7.25;;;;;;;15.01;100.00;97802.34;1701596;75;824864;-72
2023/05/24 09:11:37;;;;;;;8.70;7.60;;;;;;;14.92;100.00;97806.13;1709206;75;862851;-74
2023/05/24 09:14:08;;;;;;;12.70;8.10;;;;;;;14.89;100.00;97807.88;1689011;75;1836678;-74
2023/05/24 09:16:41;;;;;;;11.05;9.05;;;;;;;14.62;100.00;97816.84;1711548;75;698422;-74
2023/05/24 09:19:11;;;;;;;9.10;8.20;;;;;;;14.65;100.00;97811.13;1702701;75;754024;-72
2023/05/24 09:21:41;;;;;;;7.80;7.00;;;;;;;14.71;100.00;97811.09;1699281;75;1714990;-71
2023/05/24 09:24:14;;;;;;;8.25;7.45;;;;;;;14.74;100.00;97814.88;1702580;75;750924;-73
2023/05/24 09:26:45;;;;;;;8.45;7.45;;;;;;;14.68;100.00;97810.09;1695263;75;2024197;-71
2023/05/24 09:29:15;;;;;;;8.95;8.05;;;;;;;14.78;100.00;97805.09;1702304;75;743049;-76
2023/05/24 09:31:48;;;;;;;8.40;7.60;;;;;;;14.77;100.00;97811.09;1672239;75;3973107;-73
2023/05/24 09:34:19;;;;;;;9.00;8.10;;;;;;;14.83;100.00;97815.38;1675324;75;2873396;-74
2023/05/24 09:36:50;;;;;;;7.50;6.80;;;;;;;15.00;100.00;97811.88;1710761;75;673256;-72
2023/05/24 09:39:22;;;;;;;9.70;8.70;;;;;;;14.86;100.00;97814.38;1676205;75;2908834;-72
2023/05/24 09:41:57;;;;;;;9.20;8.30;;;;;;;14.57;100.00;97806.59;1698660;75;1723764;-75
2023/05/24 09:44:28;;;;;;;9.90;8.90;;;;;;;14.66;100.00;97812.59;1702682;75;752766;-72
2023/05/24 09:47:06;;;;;;;9.20;8.10;;;;;;;14.68;100.00;97814.88;1707876;75;964868;-71
2023/05/24 09:49:39;;;;;;;8.30;7.50;;;;;;;14.83;100.00;97815.38;1678127;75;2723376;-72
2023/05/24 09:52:09;;;;;;;11.70;8.50;;;;;;;14.81;100.00;97817.13;1697217;75;1838536;-74
2023/05/24 09:54:40;;;;;;;7.70;6.90;;;;;;;14.90;100.00;97819.63;1699548;75;932998;-71
2023/05/24 09:57:10;;;;;;;15.70;9.50;;;;;;;15.02;100.00;97825.91;1696967;75;1888128;-71
2023/05/24 09:59:43;;;;;;;8.90;8.00;;;;;;;15.08;100.00;97824.66;1632746;75;6528562;-71
2023/05/24 10:02:19;;;;;;;8.00;7.20;;;;;;;15.31;100.00;97816.34;1710252;75;683882;-76
2023/05/24 10:04:49;;;;;;;5.55;5.05;;;;;;;15.50;100.00;97816.56;1701911;75;745558;-75
2023/05/24 10:07:20;;;;;;;5.00;4.60;;;;;;;15.47;100.00;97814.84;1710705;75;680972;-72
2023/05/24 10:09:54;;;;;;;6.40;5.80;;;;;;;15.30;100.00;97818.38;1701089;75;825799;-71
2023/05/24 10:12:24;;;;;;;6.70;6.00;;;;;;;15.21;100.00;97823.41;1698175;75;1777567;-71
2023/05/24 10:14:56;;;;;;;7.20;6.50;;;;;;;15.37;100.00;97811.59;1701945;75;749635;-72
2023/05/24 10:17:29;;;;;;;5.60;4.80;;;;;;;15.60;100.00;97811.53;1710475;75;676311;-72
2023/05/24 10:20:00;;;;;;;4.60;4.20;;;;;;;15.75;100.00;97812.78;1700429;75;845013;-72
2023/05/24 10:22:32;;;;;;;4.85;4.40;;;;;;;15.83;100.00;97817.78;1708270;75;883111;-71
2023/05/24 10:25:04;;;;;;;4.55;3.30;;;;;;;16.02;100.00;97821.44;1678260;75;2696698;-71
2023/05/24 10:27:35;;;;;;;4.15;3.75;;;;;;;16.09;100.00;97823.69;1710268;75;730643;-72
2023/05/24 10:30:16;;;;;;;5.00;4.50;;;;;;;16.12;100.00;97822.66;1686805;75;1978624;-75
2023/05/24 10:32:52;;;;;;;4.90;4.35;;;;;;;16.20;100.00;97825.63;1702395;75;675425;-71
2023/05/24 10:35:23;;;;;;;4.90;4.40;;;;;;;16.27;100.00;97824.34;1707336;75;982390;-72
2023/05/24 10:37:54;;;;;;;5.55;4.75;;;;;;;16.38;100.00;97825.03;1688959;75;1771647;-71
2023/05/24 10:40:26;;;;;;;4.00;3.60;;;;;;;16.44;100.00;97827.00;1710541;75;687473;-75
2023/05/24 10:42:57;;;;;;;6.35;5.75;;;;;;;16.38;100.00;97832.59;1606361;67;8810246;-74
2023/05/24 10:45:37;;;;;;;6.20;5.20;;;;;;;16.44;100.00;97836.06;1710929;75;674481;-73
2023/05/24 10:48:41;;;;;;;6.30;5.70;;;;;;;16.50;100.00;97839.53;1698889;75;953933;-72
2023/05/24 10:51:37;;;;;;;6.85;5.40;;;;;;;16.40;100.00;97835.56;1701451;75;758385;-72
2023/05/24 10:54:21;;;;;;;8.15;6.40;;;;;;;16.44;100.00;97833.28;1701642;75;678060;-74
2023/05/24 10:56:53;;;;;;;7.00;5.90;;;;;;;16.45;100.00;97834.81;1700122;75;924719;-75
2023/05/24 10:59:36;;;;;;;5.30;4.80;;;;;;;16.65;100.00;97830.16;1708068;75;829581;-73
2023/05/24 11:02:08;;;;;;;7.55;6.20;;;;;;;16.58;100.00;97831.44;1702216;75;722165;-75
2023/05/24 11:04:50;;;;;;;5.90;5.30;;;;;;;16.67;100.00;97825.63;1710160;75;764296;-75
2023/05/24 11:07:22;;;;;;;6.95;6.10;;;;;;;16.61;100.00;97822.88;1701386;75;749019;-73
2023/05/24 11:09:56;;;;;;;7.20;6.45;;;;;;;16.81;100.00;97830.06;1708948;75;779661;-73
2023/05/24 11:12:37;;;;;;;11.15;10.15;;;;;;;16.72;100.00;97826.84;1701964;75;737788;-73
2023/05/24 11:15:13;;;;;;;11.70;10.50;;;;;;;16.76;100.00;97822.53;1702910;75;674176;-74
2023/05/24 11:18:19;;;;;;;9.90;8.90;;;;;;;16.76;100.00;97825.31;1708137;75;921274;-72
2023/05/24 11:20:52;;;;;;;5.70;5.10;;;;;;;17.03;100.00;97823.59;1701904;75;770897;-75
2023/05/24 11:23:22;;;;;;;6.25;4.70;;;;;;;16.91;100.00;97821.44;1710020;75;796178;-74
2023/05/24 11:25:53;;;;;;;4.00;3.60;;;;;;;17.18;100.00;97825.25;1702733;75;753202;-72
2023/05/24 11:28:24;;;;;;;5.30;4.70;;;;;;;17.25;100.00;97824.69;1711164;75;681714;-72
2023/05/24 11:30:54;;;;;;;4.90;4.40;;;;;;;17.36;100.00;97826.56;1702636;75;742868;-75
2023/05/24 11:33:26;;;;;;;4.60;4.10;;;;;;;17.42;100.00;97830.78;1698453;75;1747072;-70
2023/05/24 11:36:01;;;;;;;4.35;3.95;;;;;;;17.48;100.00;97827.22;1703064;75;733328;-71
2023/05/24 11:38:31;;;;;;;4.00;3.30;;;;;;;17.55;100.00;97824.63;1711126;75;671573;-72